28. Mai 2022

Uhrzeit Code Wetter Temp. Sichtweite Wolkendecke Wind METAR/SPECI
5:20 pm
L
54 °F 0 mi - Var 000° 0 kt METAR ETNT 281520Z AUTO /////KT //// // ////// 12/07 Q1017 ///
4:20 pm
L
55 °F 0 mi - Var 000° 0 kt METAR ETNT 281420Z AUTO /////KT //// // ////// 13/06 Q1017 ///
3:20 pm
L
54 °F 0 mi - Var 000° 0 kt METAR ETNT 281320Z AUTO /////KT //// // ////// 12/06 Q1018 ///
2:20 pm
L
55 °F 0 mi - Var 000° 0 kt METAR ETNT 281220Z AUTO /////KT //// // ////// 13/06 Q1018 ///
1:20 pm
L
55 °F 0 mi - Var 000° 0 kt METAR ETNT 281120Z AUTO /////KT //// // ////// 13/05 Q1018 ///
12:20 pm
L
55 °F 0 mi - Var 000° 0 kt METAR ETNT 281020Z AUTO /////KT //// // ////// 13/06 Q1018 ///
11:20 am
L
55 °F 0 mi - Var 000° 0 kt METAR ETNT 280920Z AUTO /////KT //// // ////// 13/06 Q1017 ///
10:20 am
L
52 °F 0 mi - Var 000° 0 kt METAR ETNT 280820Z AUTO /////KT //// // ////// 11/06 Q1017 ///
9:20 am
L
54 °F 0 mi - Var 000° 0 kt METAR ETNT 280720Z AUTO /////KT //// // ////// 12/07 Q1017 ///
8:20 am
L
52 °F 0 mi - Var 000° 0 kt METAR ETNT 280620Z AUTO /////KT //// // ////// 11/08 Q1017 ///
7:20 am
L
48 °F 0 mi - Var 000° 0 kt METAR ETNT 280520Z AUTO /////KT //// // ////// 09/08 Q1016 ///
6:20 am
L
50 °F 0 mi - Var 000° 0 kt METAR ETNT 280420Z AUTO /////KT //// // ////// 10/07 Q1016 ///
5:20 am
L
50 °F 0 mi - Var 000° 0 kt METAR ETNT 280320Z AUTO /////KT //// // ////// 10/06 Q1015 ///
4:20 am
L
50 °F 0 mi - Var 000° 0 kt METAR ETNT 280220Z AUTO /////KT //// // ////// 10/06 Q1015 ///
3:20 am
L
50 °F 0 mi - Var 000° 0 kt METAR ETNT 280120Z AUTO /////KT //// // ////// 10/06 Q1016 ///
2:20 am
L
50 °F 0 mi - Var 000° 0 kt METAR ETNT 280020Z AUTO /////KT //// // ////// 10/06 Q1016 ///
1:20 am
L
50 °F 0 mi - Var 000° 0 kt METAR ETNT 272320Z AUTO /////KT //// // ////// 10/07 Q1016 ///
12:20 am
L
50 °F 0 mi - Var 000° 0 kt METAR ETNT 272220Z AUTO /////KT //// // ////// 10/07 Q1016 ///

27. Mai 2022

Uhrzeit Code Wetter Temp. Sichtweite Wolkendecke Wind METAR/SPECI
11:20 pm
L
52 °F 0 mi - Var 000° 0 kt METAR ETNT 272120Z AUTO /////KT //// // ////// 11/07 Q1017 ///
10:20 pm
L
52 °F 0 mi - Var 000° 0 kt METAR ETNT 272020Z AUTO /////KT //// // ////// 11/07 Q1017 ///
9:20 pm
L
50 °F 0 mi - Var 000° 0 kt METAR ETNT 271920Z AUTO /////KT //// // ////// 10/08 Q1017 ///
8:20 pm
L
55 °F 0 mi - Var 000° 0 kt METAR ETNT 271820Z AUTO /////KT //// // ////// 13/07 Q1017 ///
7:20 pm
L
55 °F 0 mi - Var 000° 0 kt METAR ETNT 271720Z AUTO /////KT //// // ////// 13/07 Q1017 ///
6:20 pm
L
55 °F 0 mi - Var 000° 0 kt METAR ETNT 271620Z AUTO /////KT //// // ////// 13/07 Q1017 ///
5:20 pm
L
55 °F 0 mi - Var 000° 0 kt METAR ETNT 271520Z AUTO /////KT //// // ////// 13/07 Q1017 ///
4:20 pm
L
55 °F 0 mi - Var 000° 0 kt METAR ETNT 271420Z AUTO /////KT //// // ////// 13/07 Q1017 ///
3:20 pm
L
55 °F 0 mi - Var 000° 0 kt METAR ETNT 271320Z AUTO /////KT //// // ////// 13/10 Q1017 ///
2:20 pm
L
55 °F 0 mi - Var 000° 0 kt METAR ETNT 271220Z AUTO /////KT //// // ////// 13/06 Q1017 ///
1:20 pm
V
55 °F 6¼ mi+ 5.000 ft 270° 270° 18 kt METAR ETNT 271120Z 27018KT 9999 SCT025 BKN050 13/06 Q1017 BLACKBLU
12:20 pm
V
55 °F 6¼ mi+ 5.000 ft 280° 280° 18 kt METAR ETNT 271020Z 28018KT 9999 SCT030 BKN050 13/06 Q1016 BLACKBLU
11:20 am
V
57 °F 6¼ mi+ 4.500 ft 280° 280° 18 kt METAR ETNT 270920Z 28018KT 9999 FEW030 BKN045 14/07 Q1016 BLACKBLU
10:20 am
V
55 °F 6¼ mi+ 5.000 ft 270° 270° 16 kt METAR ETNT 270820Z 27016KT 9999 FEW030 BKN050 13/06 Q1016 BLACKBLU
9:20 am
V
55 °F 6¼ mi+ - 280° 280° 14 kt METAR ETNT 270720Z 28014KT 9999 FEW030 SCT060 13/05 Q1016 BLACKBLU+
8:20 am
V
55 °F 6¼ mi+ - 280° 280° 7 kt METAR ETNT 270620Z 28007KT 9999 FEW025 SCT060 13/05 Q1015 BLACKBLU+
7:20 am
V
54 °F 6¼ mi+ - 270° 270° 7 kt METAR ETNT 270520Z 27007KT 9999 FEW025 SCT060 12/06 Q1015 BLACKBLU+
6:20 am
V
50 °F 6¼ mi+ - 260° 260° 5 kt METAR ETNT 270420Z 26005KT 9999 FEW016 SCT050 10/07 Q1015 BLACKBLU+
5:20 am
L
50 °F 0 mi - Var 000° 0 kt METAR ETNT 270320Z AUTO /////KT //// // ////// 10/06 Q1015 ///
4:20 am
L
52 °F 0 mi - Var 000° 0 kt METAR ETNT 270220Z AUTO /////KT //// // ////// 11/09 Q1015 ///
3:20 am
L
54 °F 0 mi - Var 000° 0 kt METAR ETNT 270120Z AUTO /////KT //// // ////// 12/09 Q1015 ///
2:20 am
L
55 °F 0 mi - Var 000° 0 kt METAR ETNT 270020Z AUTO /////KT //// // ////// 13/10 Q1015 ///
1:20 am
L
57 °F 0 mi - Var 000° 0 kt METAR ETNT 262320Z AUTO /////KT //// // ////// 14/12 Q1015 ///
12:20 am
L
57 °F 0 mi - Var 000° 0 kt METAR ETNT 262220Z AUTO /////KT //// // ////// 14/13 Q1015 ///

26. Mai 2022

Uhrzeit Code Wetter Temp. Sichtweite Wolkendecke Wind METAR/SPECI
11:20 pm
L
57 °F 0 mi - Var 000° 0 kt METAR ETNT 262120Z AUTO /////KT //// // ////// 14/13 Q1015 ///
10:20 pm
L
57 °F 0 mi - Var 000° 0 kt METAR ETNT 262020Z AUTO /////KT //// // ////// 14/13 Q1015 ///
9:20 pm
L
55 °F 0 mi - Var 000° 0 kt METAR ETNT 261920Z AUTO /////KT //// // ////// 13/12 Q1015 ///
8:20 pm
L
57 °F 0 mi - Var 000° 0 kt METAR ETNT 261820Z AUTO /////KT //// // ////// 14/11 Q1016 ///
7:20 pm
L
59 °F 0 mi - Var 000° 0 kt METAR ETNT 261720Z AUTO /////KT //// // ////// 15/11 Q1016 ///
6:20 pm
L
57 °F 0 mi - Var 000° 0 kt METAR ETNT 261620Z AUTO /////KT //// // ////// 14/11 Q1017 ///
5:20 pm
L
61 °F 0 mi - Var 000° 0 kt METAR ETNT 261520Z AUTO /////KT //// // ////// 16/10 Q1017 ///
Ältere Daten

Laden Sie unsere App herunter

Einfacher Zugriff auf das gesamte Flugwetter auf Ihrem Mobiltelefon und Tablet.
Mit vielen Funktionen, die auf der Website nicht verfügbar sind, wie Offline-Unterstützung und eine persönliche Flughafenliste.

Wir und Dritte verfolgen dein Internetverhalten auf unserer Website mit Cookies. Wenn du fortfährst, gehen wir davon aus, dass du mit unserer Cookie-Richtlinie einverstanden bist. Mehr erfahren